CRS4 weather

Rosseau Airport
Ontario, Canada

Public forecast

Using degrees Celsius for public forecast. Weather courtesy of forecast.io.

METAR (pilot weather report)

Closest report is Muskoka Airport, 23.1 nm (42.9 km) SE. Retrieved 2019/07/23 14:00 UTC (37 minutes ago):

CYQA 231400Z AUTO 35004KT 300V060 9SM CLR 21/10 A2994 RMK SLP139 DENSITY ALT 1800FT

TAF (pilot weather forecast)

Closest forecast is Muskoka Airport, 23.1 nm (42.9 km) SE. Retrieved 2019/07/23 14:48 UTC (0 seconds ago):

TAF CYQA 231338Z 2314/2402 VRB03KT P6SM SKC BECMG 2314/2316 30008KT FM231800 30008KT P6SM FEW050 SCT140 FM232100 30008KT P6SM BKN070 BKN120 RMK FCST BASED ON AUTO OBS. NXT FCST BY 232000Z